Time;durP1;ratioP1;P1;durP2;ratioP2;P2;SDS_P1;SDS_P2;PMS_P1;PMS_P2;Temp;Humidity;BMP_temperature;BMP_pressure;BME280_temperature;BME280_humidity;BME280_pressure;Samples;Min_cycle;Max_cycle;Signal;HPM_P1;HPM_P2
2021/03/02 00:01:21;;;;;;;1.40;1.30;;;;;;;6.69;61.43;102437.97;6071323;29;20221;-73
2021/03/02 00:04:49;;;;;;;1.47;1.30;;;;;;;6.60;62.02;102444.34;6065518;29;20210;-74
2021/03/02 00:07:53;;;;;;;1.70;1.13;;;;;;;6.52;62.06;102436.97;6072757;29;20238;-74
2021/03/02 00:10:59;;;;;;;1.00;1.00;;;;;;;6.62;61.65;102440.47;6070831;29;20252;-73
2021/03/02 00:14:04;;;;;;;1.10;1.10;;;;;;;6.64;61.62;102445.72;6072604;29;20403;-73
2021/03/02 00:17:15;;;;;;;1.00;1.00;;;;;;;6.48;61.59;102451.81;6071176;29;20429;-74
2021/03/02 00:20:21;;;;;;;1.03;1.03;;;;;;;6.52;61.67;102441.53;6055443;29;20251;-74
2021/03/02 00:23:26;;;;;;;1.00;1.00;;;;;;;6.43;62.52;102442.41;6071940;29;20242;-74
2021/03/02 00:26:33;;;;;;;3.03;1.20;;;;;;;6.42;62.13;102448.84;6071265;29;20202;-73
2021/03/02 00:29:39;;;;;;;1.23;1.23;;;;;;;6.35;62.21;102442.31;6071795;29;20245;-73
2021/03/02 00:32:46;;;;;;;1.03;1.03;;;;;;;6.37;62.46;102456.59;6072127;29;20236;-72
2021/03/02 00:35:50;;;;;;;1.27;1.27;;;;;;;6.29;62.35;102441.91;6071947;29;20234;-74
2021/03/02 00:38:54;;;;;;;1.10;1.10;;;;;;;6.28;62.78;102461.91;6070561;29;20267;-74
2021/03/02 00:41:58;;;;;;;4.23;1.13;;;;;;;6.07;62.99;102458.56;6071719;29;20321;-73
2021/03/02 00:45:01;;;;;;;1.10;1.10;;;;;;;6.13;63.13;102452.56;6071066;29;20544;-73
2021/03/02 00:48:11;;;;;;;2.73;1.33;;;;;;;5.96;63.48;102450.63;6071572;29;20222;-74
2021/03/02 00:51:16;;;;;;;1.30;1.20;;;;;;;6.05;63.40;102443.47;6055068;29;20220;-74
2021/03/02 00:54:20;;;;;;;1.10;1.10;;;;;;;6.02;62.77;102439.19;6071001;29;20593;-74
2021/03/02 00:57:26;;;;;;;1.13;1.13;;;;;;;6.16;62.58;102446.81;6055424;29;20209;-74
2021/03/02 01:00:30;;;;;;;1.03;1.03;;;;;;;6.11;62.85;102449.13;6071368;29;20268;-74
2021/03/02 01:03:55;;;;;;;2.67;1.07;;;;;;;6.22;62.47;102451.66;6056351;29;20534;-74
2021/03/02 01:06:59;;;;;;;1.30;1.30;;;;;;;6.16;62.45;102457.66;6070956;29;20204;-74
2021/03/02 01:10:07;;;;;;;1.00;1.00;;;;;;;5.98;62.60;102440.50;6071622;29;20229;-74
2021/03/02 01:13:17;;;;;;;1.10;1.10;;;;;;;5.92;63.37;102460.06;6054459;29;20256;-73
2021/03/02 01:16:21;;;;;;;2.77;1.03;;;;;;;5.79;63.79;102448.66;6059438;29;20209;-73
2021/03/02 01:19:25;;;;;;;1.07;1.07;;;;;;;5.86;63.52;102465.19;6074884;29;20362;-73
2021/03/02 01:22:29;;;;;;;1.10;1.10;;;;;;;5.86;63.63;102454.34;6074933;29;20498;-73
2021/03/02 01:25:33;;;;;;;1.43;1.20;;;;;;;5.85;62.94;102453.53;6076196;29;20196;-73
2021/03/02 01:28:38;;;;;;;1.10;1.10;;;;;;;5.84;63.13;102457.19;6059396;29;20212;-73
2021/03/02 01:31:41;;;;;;;2.40;1.10;;;;;;;5.86;63.47;102460.63;6075675;29;20224;-74
2021/03/02 01:34:44;;;;;;;1.00;1.00;;;;;;;5.78;63.11;102460.47;6075646;29;20199;-73
2021/03/02 01:37:48;;;;;;;1.03;1.03;;;;;;;5.83;63.82;102477.13;6074628;29;20361;-73
2021/03/02 01:40:52;;;;;;;1.13;1.13;;;;;;;5.58;64.04;102475.91;6058634;29;20413;-74
2021/03/02 01:44:13;;;;;;;1.63;1.10;;;;;;;5.46;65.39;102484.34;6075738;29;20192;-74
2021/03/02 01:47:17;;;;;;;1.20;1.20;;;;;;;5.41;65.83;102475.81;6074394;29;20479;-74
2021/03/02 01:50:21;;;;;;;1.27;1.17;;;;;;;5.57;65.26;102476.06;6075014;29;20244;-74
2021/03/02 01:53:25;;;;;;;1.03;1.00;;;;;;;5.40;65.20;102472.25;6074303;29;20563;-73
2021/03/02 01:56:28;;;;;;;1.00;1.00;;;;;;;5.45;65.73;102469.94;6058789;29;20239;-73
2021/03/02 01:59:33;;;;;;;2.53;1.20;;;;;;;5.43;65.35;102484.63;6075437;29;20219;-73
2021/03/02 02:02:41;;;;;;;1.10;1.10;;;;;;;5.45;65.68;102482.63;6074100;29;20192;-74
2021/03/02 02:05:47;;;;;;;1.07;1.07;;;;;;;5.49;65.72;102467.81;6074987;29;20257;-74
2021/03/02 02:08:59;;;;;;;1.83;1.20;;;;;;;5.49;65.30;102489.47;6075281;29;20196;-74
2021/03/02 02:12:07;;;;;;;1.33;1.13;;;;;;;5.40;65.45;102487.63;6073842;29;20534;-74
2021/03/02 02:15:15;;;;;;;1.10;1.10;;;;;;;5.29;66.04;102493.19;6074745;29;20192;-74
2021/03/02 02:18:26;;;;;;;1.00;1.00;;;;;;;5.40;65.62;102490.31;6059112;29;20207;-74
2021/03/02 02:21:40;;;;;;;1.07;1.07;;;;;;;5.24;66.23;102484.66;6074538;29;20226;-74
2021/03/02 02:24:53;;;;;;;1.00;1.00;;;;;;;5.28;66.22;102486.06;6057066;29;20296;-74
2021/03/02 02:28:00;;;;;;;1.10;1.10;;;;;;;5.19;66.39;102489.63;6073640;29;20296;-74
2021/03/02 02:31:08;;;;;;;1.13;1.10;;;;;;;4.97;67.52;102494.31;6073549;29;20487;-74
2021/03/02 02:34:14;;;;;;;1.07;1.07;;;;;;;5.27;66.65;102506.84;6074473;29;20198;-74
2021/03/02 02:37:20;;;;;;;1.20;1.20;;;;;;;5.32;66.16;102509.13;6074344;29;20198;-74
2021/03/02 02:40:24;;;;;;;1.03;1.00;;;;;;;5.16;66.87;102498.91;6073200;29;20570;-74
2021/03/02 02:43:29;;;;;;;1.10;1.10;;;;;;;5.25;66.26;102497.16;6074544;29;20191;-74
2021/03/02 02:46:32;;;;;;;1.27;1.13;;;;;;;4.87;68.16;102517.78;6074452;29;20223;-73
2021/03/02 02:49:37;;;;;;;1.00;1.00;;;;;;;5.08;67.40;102502.28;6073113;29;20204;-74
2021/03/02 02:52:42;;;;;;;1.10;1.10;;;;;;;5.16;67.67;102515.13;6074083;29;20208;-74
2021/03/02 02:55:49;;;;;;;1.00;1.00;;;;;;;5.03;67.24;102499.16;6073931;29;20192;-74
2021/03/02 02:59:02;;;;;;;1.10;1.10;;;;;;;5.19;67.43;102519.41;6072911;29;20199;-74
2021/03/02 03:02:10;;;;;;;1.20;1.20;;;;;;;5.14;68.24;102529.78;6072742;29;20222;-74
2021/03/02 03:05:18;;;;;;;1.10;1.10;;;;;;;5.27;67.31;102530.34;6074045;29;20263;-74
2021/03/02 03:08:25;;;;;;;0.97;0.97;;;;;;;5.32;67.54;102544.31;6074148;29;20201;-74
2021/03/02 03:11:37;;;;;;;1.03;1.00;;;;;;;5.21;67.43;102539.06;6073893;29;20204;-74
2021/03/02 03:14:48;;;;;;;0.93;0.93;;;;;;;5.26;67.81;102556.59;6073773;29;20199;-74
2021/03/02 03:17:54;;;;;;;1.10;1.10;;;;;;;5.16;68.08;102568.38;6072839;29;20248;-74
2021/03/02 03:20:59;;;;;;;1.30;1.20;;;;;;;5.30;67.17;102562.56;6073588;29;20220;-74
2021/03/02 03:24:04;;;;;;;1.57;1.47;;;;;;;5.22;67.79;102582.19;6072331;29;20481;-74
2021/03/02 03:27:10;;;;;;;1.10;1.10;;;;;;;5.21;67.56;102576.94;6072283;29;20192;-74
2021/03/02 03:30:16;;;;;;;1.20;1.10;;;;;;;5.25;67.71;102581.06;6072135;29;20509;-74
2021/03/02 03:33:25;;;;;;;1.17;1.07;;;;;;;5.27;67.08;102570.94;6073567;29;20192;-74
2021/03/02 03:36:30;;;;;;;2.20;1.03;;;;;;;5.18;67.61;102578.09;6072426;29;20198;-74
2021/03/02 03:39:33;;;;;;;1.17;1.10;;;;;;;5.37;67.38;102577.22;6071848;29;20194;-74
2021/03/02 03:42:36;;;;;;;1.50;1.30;;;;;;;5.27;67.43;102576.34;6072375;29;20199;-74
2021/03/02 03:45:41;;;;;;;1.10;1.10;;;;;;;5.11;68.33;102592.31;6073118;29;20266;-73
2021/03/02 03:48:45;;;;;;;1.10;1.10;;;;;;;4.96;68.51;102598.09;6071801;29;20382;-74
2021/03/02 03:51:51;;;;;;;1.10;1.10;;;;;;;4.99;68.69;102603.22;6071701;29;20197;-74
2021/03/02 03:54:57;;;;;;;1.10;1.10;;;;;;;4.92;69.22;102599.38;6071473;29;20498;-74
2021/03/02 03:58:01;;;;;;;3.30;1.10;;;;;;;4.97;69.47;102602.53;6072619;29;20224;-74
2021/03/02 04:01:06;;;;;;;5.20;1.30;;;;;;;4.95;69.36;102599.09;6071457;29;20280;-74
2021/03/02 04:04:10;;;;;;;1.17;1.17;;;;;;;4.89;69.28;102612.31;6072496;29;20231;-75
2021/03/02 04:07:15;;;;;;;1.10;1.10;;;;;;;4.92;68.53;102615.59;6072703;29;20195;-74
2021/03/02 04:10:20;;;;;;;5.83;1.20;;;;;;;4.85;69.19;102614.41;6072503;29;20201;-74
2021/03/02 04:13:27;;;;;;;1.37;1.13;;;;;;;4.87;68.93;102634.09;6072034;29;20372;-74
2021/03/02 04:16:32;;;;;;;7.33;1.10;;;;;;;4.91;68.88;102624.69;6072181;29;20191;-74
2021/03/02 04:19:36;;;;;;;1.80;0.93;;;;;;;4.87;69.29;102644.91;6056089;29;20208;-74
2021/03/02 04:22:40;;;;;;;1.90;1.00;;;;;;;4.83;69.60;102637.19;6072376;29;20251;-74
2021/03/02 04:25:44;;;;;;;1.10;1.10;;;;;;;4.73;69.62;102639.84;6070969;29;20192;-74
2021/03/02 04:28:47;;;;;;;1.00;1.00;;;;;;;4.71;70.13;102649.97;6055027;29;20523;-74
2021/03/02 04:31:51;;;;;;;0.90;0.90;;;;;;;4.86;69.98;102654.00;6072130;29;20195;-74
2021/03/02 04:34:55;;;;;;;1.10;1.10;;;;;;;4.75;69.75;102656.78;6072148;29;20279;-74
2021/03/02 04:37:58;;;;;;;1.17;1.17;;;;;;;4.71;70.15;102671.59;6072121;29;20247;-74
2021/03/02 04:41:02;;;;;;;1.10;1.10;;;;;;;4.71;70.52;102674.28;6070981;29;20220;-74
2021/03/02 04:44:06;;;;;;;1.50;0.90;;;;;;;4.58;70.70;102681.75;6070721;29;20485;-74
2021/03/02 04:47:10;;;;;;;3.30;1.30;;;;;;;4.61;70.61;102681.50;6071751;29;20229;-74
2021/03/02 04:50:15;;;;;;;3.20;1.10;;;;;;;4.62;70.56;102694.03;6055094;29;20209;-74
2021/03/02 04:53:19;;;;;;;1.10;1.10;;;;;;;4.72;70.59;102700.34;6071782;29;20238;-74
2021/03/02 04:56:23;;;;;;;1.30;1.00;;;;;;;4.60;70.31;102700.53;6071469;29;20259;-73
2021/03/02 04:59:27;;;;;;;1.50;0.90;;;;;;;4.51;71.22;102707.63;6070423;29;20275;-74
2021/03/02 05:02:30;;;;;;;1.00;1.00;;;;;;;4.54;70.57;102718.19;6070631;29;20280;-74
2021/03/02 05:05:35;;;;;;;3.50;1.10;;;;;;;4.50;71.09;102719.41;6071538;29;20191;-74
2021/03/02 05:08:38;;;;;;;1.97;1.20;;;;;;;4.42;71.70;102724.63;6071310;29;20227;-74
2021/03/02 05:11:42;;;;;;;1.80;1.37;;;;;;;4.60;70.88;102728.44;6071374;29;20195;-73
2021/03/02 05:14:45;;;;;;;1.50;1.50;;;;;;;4.63;71.51;102736.28;6071449;29;20192;-74
2021/03/02 05:17:50;;;;;;;1.30;1.10;;;;;;;4.68;71.00;102742.16;6071650;29;20254;-73
2021/03/02 05:20:53;;;;;;;1.27;1.27;;;;;;;4.72;71.27;102751.75;6070086;29;20221;-74
2021/03/02 05:23:56;;;;;;;2.33;1.10;;;;;;;4.76;70.79;102755.88;6071110;29;20238;-73
2021/03/02 05:27:00;;;;;;;2.70;1.30;;;;;;;4.82;70.96;102749.94;6070054;29;20548;-74
2021/03/02 05:30:06;;;;;;;2.63;1.00;;;;;;;4.54;71.12;102761.44;6071390;29;20192;-73
2021/03/02 05:33:14;;;;;;;1.10;1.10;;;;;;;4.77;71.16;102752.19;6071143;29;20255;-73
2021/03/02 05:36:18;;;;;;;2.23;1.23;;;;;;;4.89;70.18;102745.72;6071111;29;20198;-73
2021/03/02 05:39:22;;;;;;;1.00;1.00;;;;;;;4.84;70.31;102758.78;6071026;29;20261;-73
2021/03/02 05:42:27;;;;;;;8.80;1.50;;;;;;;4.83;70.83;102767.88;6069889;29;20519;-75
2021/03/02 05:45:31;;;;;;;2.50;1.27;;;;;;;4.86;70.35;102766.75;6069966;29;20476;-73
2021/03/02 05:48:36;;;;;;;1.43;1.33;;;;;;;4.84;70.33;102769.59;6071082;29;20224;-74
2021/03/02 05:51:42;;;;;;;3.43;1.13;;;;;;;4.63;70.93;102776.84;6062512;29;20262;-74
2021/03/02 05:54:46;;;;;;;1.00;1.00;;;;;;;4.61;71.16;102788.78;6070097;29;20235;-74
2021/03/02 05:57:49;;;;;;;1.10;1.10;;;;;;;4.73;71.41;102794.00;6071128;29;20257;-74
2021/03/02 06:00:54;;;;;;;2.17;1.17;;;;;;;4.58;71.59;102805.25;6071871;29;20215;-75
2021/03/02 06:04:14;;;;;;;1.73;1.73;;;;;;;4.55;71.74;102806.38;6074035;29;20199;-73
2021/03/02 06:07:36;;;;;;;4.27;1.30;;;;;;;4.49;71.92;102804.22;6074830;29;20200;-73
2021/03/02 06:10:39;;;;;;;4.73;1.00;;;;;;;4.64;71.25;102794.81;6075349;29;20204;-73
2021/03/02 06:13:44;;;;;;;3.10;1.10;;;;;;;4.18;73.27;102802.38;6073735;29;20380;-73
2021/03/02 06:16:48;;;;;;;2.47;1.27;;;;;;;4.21;73.59;102818.34;6075038;29;20240;-73
2021/03/02 06:19:53;;;;;;;6.27;1.10;;;;;;;4.54;72.39;102818.19;6074978;29;20241;-73
2021/03/02 06:22:56;;;;;;;4.73;1.30;;;;;;;4.64;72.29;102821.84;6074565;29;20222;-73
2021/03/02 06:26:24;;;;;;;1.23;1.23;;;;;;;4.55;72.15;102838.81;6074442;29;20195;-73
2021/03/02 06:29:27;;;;;;;3.23;2.00;;;;;;;4.47;72.19;102841.31;6074631;29;20194;-73
2021/03/02 06:32:36;;;;;;;1.57;1.57;;;;;;;4.53;71.95;102840.81;6073437;29;20504;-74
2021/03/02 06:35:43;;;;;;;4.53;1.17;;;;;;;4.71;71.72;102849.19;6074351;29;20193;-73
2021/03/02 06:38:47;;;;;;;1.50;1.03;;;;;;;4.62;72.10;102842.75;6073392;29;20497;-74
2021/03/02 06:41:51;;;;;;;1.10;1.10;;;;;;;4.71;71.66;102844.66;6073230;29;20278;-73
2021/03/02 06:45:06;;;;;;;5.20;1.30;;;;;;;4.74;71.15;102855.22;6074535;29;20191;-74
2021/03/02 06:48:15;;;;;;;1.17;1.07;;;;;;;4.63;71.74;102852.56;6073184;29;20214;-74
2021/03/02 06:51:29;;;;;;;1.93;1.10;;;;;;;4.65;71.39;102847.88;6074287;29;20236;-74
2021/03/02 06:54:32;;;;;;;1.07;1.00;;;;;;;4.76;71.13;102845.13;6073800;29;20236;-73
2021/03/02 06:57:35;;;;;;;1.43;1.23;;;;;;;4.80;71.46;102851.97;6073954;29;20265;-74
2021/03/02 07:00:39;;;;;;;2.10;1.13;;;;;;;4.74;71.96;102866.03;6072919;29;20191;-74
2021/03/02 07:04:09;;;;;;;2.03;1.27;;;;;;;4.68;72.00;102871.94;6073695;29;20191;-74
2021/03/02 07:07:19;;;;;;;5.23;1.17;;;;;;;4.67;72.69;102872.09;6072687;29;20199;-73
2021/03/02 07:10:25;;;;;;;1.23;1.00;;;;;;;4.77;71.69;102876.59;6073229;29;20191;-74
2021/03/02 07:13:31;;;;;;;5.70;1.33;;;;;;;4.72;71.75;102884.25;6072462;29;20234;-74
2021/03/02 07:16:38;;;;;;;7.20;1.60;;;;;;;4.59;72.46;102894.38;6073727;29;20259;-74
2021/03/02 07:19:44;;;;;;;4.53;1.17;;;;;;;4.82;71.51;102896.00;6073500;29;20242;-74
2021/03/02 07:22:50;;;;;;;9.43;1.60;;;;;;;4.98;71.09;102890.97;6072232;29;20533;-74
2021/03/02 07:25:56;;;;;;;1.20;1.20;;;;;;;5.04;70.97;102890.47;6073220;29;20192;-74
2021/03/02 07:29:02;;;;;;;2.73;1.43;;;;;;;5.03;70.95;102888.75;6056790;29;20217;-73
2021/03/02 07:32:09;;;;;;;7.93;1.50;;;;;;;4.94;70.95;102910.31;6056547;29;20214;-73
2021/03/02 07:35:17;;;;;;;2.07;1.10;;;;;;;5.00;71.05;102907.97;6072498;29;20191;-73
2021/03/02 07:38:22;;;;;;;1.10;1.10;;;;;;;4.97;70.51;102905.50;6072667;29;20195;-74
2021/03/02 07:41:34;;;;;;;1.37;1.37;;;;;;;5.02;70.57;102900.56;6071570;29;20217;-73
2021/03/02 07:45:11;;;;;;;2.70;1.60;;;;;;;5.21;69.40;102923.34;6072962;29;20267;-73
2021/03/02 07:48:36;;;;;;;6.33;1.40;;;;;;;5.08;69.39;102924.38;6072667;29;20191;-74
2021/03/02 07:51:39;;;;;;;6.63;1.33;;;;;;;5.08;69.64;102929.78;6071461;29;20226;-75
2021/03/02 07:54:46;;;;;;;2.70;1.00;;;;;;;5.13;69.60;102932.13;6055142;29;20307;-73
2021/03/02 07:58:11;;;;;;;4.97;1.20;;;;;;;5.29;69.09;102939.78;6055500;29;20549;-74
2021/03/02 08:01:19;;;;;;;4.37;1.10;;;;;;;5.47;68.56;102935.50;6072470;29;20270;-74
2021/03/02 08:04:25;;;;;;;7.47;1.27;;;;;;;5.53;68.17;102940.34;6072340;29;20193;-74
2021/03/02 08:07:29;;;;;;;3.73;1.00;;;;;;;5.36;68.93;102944.53;6071479;29;20443;-75
2021/03/02 08:10:36;;;;;;;3.13;1.30;;;;;;;5.49;69.00;102937.09;6072192;29;20192;-75
2021/03/02 08:13:42;;;;;;;7.80;1.40;;;;;;;5.59;68.08;102945.25;6072459;29;20197;-75
2021/03/02 08:16:54;;;;;;;4.03;1.17;;;;;;;5.66;68.34;102951.84;6072311;29;20192;-74
2021/03/02 08:20:05;;;;;;;8.23;1.20;;;;;;;5.56;67.85;102967.19;6071995;29;20197;-74
2021/03/02 08:23:09;;;;;;;4.43;1.00;;;;;;;5.55;67.50;102970.88;6071422;29;20248;-75
2021/03/02 08:26:24;;;;;;;2.00;1.37;;;;;;;5.50;67.66;102963.16;6071704;29;20216;-75
2021/03/02 08:29:27;;;;;;;5.93;1.40;;;;;;;5.53;67.58;102989.97;6070837;29;20193;-74
2021/03/02 08:32:31;;;;;;;1.57;1.27;;;;;;;5.58;67.15;102978.72;6070756;29;20392;-74
2021/03/02 08:35:37;;;;;;;7.30;1.30;;;;;;;5.67;66.99;102975.25;6070766;29;20500;-74
2021/03/02 08:38:41;;;;;;;3.97;1.10;;;;;;;5.76;67.41;102982.56;6071569;29;20192;-74
2021/03/02 08:41:50;;;;;;;7.83;1.10;;;;;;;5.70;67.89;102986.66;6070612;29;20217;-74
2021/03/02 08:45:04;;;;;;;1.90;1.10;;;;;;;5.80;66.64;102986.72;6070607;29;20461;-73
2021/03/02 08:48:13;;;;;;;1.47;1.17;;;;;;;5.86;66.95;102988.91;6070795;29;20193;-73
2021/03/02 08:51:22;;;;;;;7.57;1.27;;;;;;;5.93;66.41;102983.81;6071565;29;20196;-74
2021/03/02 08:54:26;;;;;;;3.77;1.27;;;;;;;5.98;66.16;102989.69;6071182;29;20279;-74
2021/03/02 08:57:30;;;;;;;13.87;1.33;;;;;;;6.05;66.21;102994.44;6054806;29;20212;-74
2021/03/02 09:00:33;;;;;;;4.70;0.97;;;;;;;6.08;65.87;102979.75;6053558;29;20399;-73
2021/03/02 09:03:46;;;;;;;1.07;1.00;;;;;;;6.12;65.80;102987.47;6070431;29;20445;-74
2021/03/02 09:06:51;;;;;;;1.90;1.30;;;;;;;6.16;65.63;102983.47;6071566;29;20224;-74
2021/03/02 09:09:54;;;;;;;6.63;1.00;;;;;;;6.20;65.45;102998.50;6070993;29;20193;-74
2021/03/02 09:12:58;;;;;;;8.57;1.10;;;;;;;6.32;64.73;103002.81;6071587;29;20200;-75
2021/03/02 09:16:02;;;;;;;0.80;0.80;;;;;;;6.32;64.59;103005.53;6071180;29;20224;-74
2021/03/02 09:19:20;;;;;;;5.20;1.30;;;;;;;6.42;64.77;103004.72;6071077;29;20193;-73
2021/03/02 09:22:24;;;;;;;5.50;1.30;;;;;;;6.49;64.75;102997.75;6050446;29;20248;-73
2021/03/02 09:25:30;;;;;;;10.40;1.13;;;;;;;6.52;65.05;103000.19;6048183;29;20232;-72
2021/03/02 09:28:35;;;;;;;8.00;1.60;;;;;;;6.62;63.65;102995.66;6047978;29;20198;-72
2021/03/02 09:31:38;;;;;;;9.57;1.50;;;;;;;6.78;63.28;103017.66;6047661;29;20206;-72
2021/03/02 09:34:44;;;;;;;15.27;1.43;;;;;;;6.78;63.05;103006.78;6048082;29;20191;-72
2021/03/02 09:37:47;;;;;;;4.10;1.20;;;;;;;6.81;62.42;103009.22;6052832;29;20256;-72
2021/03/02 09:40:51;;;;;;;4.83;1.30;;;;;;;6.79;61.86;103013.94;6052643;29;20243;-73
2021/03/02 09:43:55;;;;;;;11.23;1.47;;;;;;;6.92;61.59;103019.97;6051410;29;20221;-73
2021/03/02 09:47:02;;;;;;;1.37;1.10;;;;;;;6.95;59.74;103030.56;6051250;29;20420;-74
2021/03/02 09:50:08;;;;;;;7.53;1.43;;;;;;;7.03;59.80;103029.84;6052454;29;20235;-73
2021/03/02 09:53:16;;;;;;;4.70;1.60;;;;;;;6.93;58.93;103032.56;6051002;29;20483;-73
2021/03/02 09:56:20;;;;;;;3.23;1.20;;;;;;;7.02;57.95;103044.41;6052274;29;20195;-73
2021/03/02 09:59:26;;;;;;;11.07;1.73;;;;;;;7.15;57.74;103048.56;6052215;29;20218;-74
2021/03/02 10:02:29;;;;;;;13.03;1.60;;;;;;;7.18;57.79;103056.44;6051991;29;20250;-74
2021/03/02 10:05:40;;;;;;;11.83;1.90;;;;;;;7.27;57.44;103052.88;6051959;29;20194;-73
2021/03/02 10:08:48;;;;;;;15.93;1.73;;;;;;;7.31;58.04;103048.88;6049790;29;20215;-74
2021/03/02 10:12:15;;;;;;;7.10;2.00;;;;;;;7.35;57.45;103055.72;6051450;29;20199;-73
2021/03/02 10:15:23;;;;;;;4.73;2.60;;;;;;;7.35;57.64;103053.03;6037879;29;20274;-73
2021/03/02 10:18:26;;;;;;;29.23;8.63;;;;;;;7.55;56.12;103065.59;6034300;29;20214;-73
2021/03/02 10:21:39;;;;;;;12.53;1.70;;;;;;;7.50;56.03;103064.31;6051676;29;20222;-73
2021/03/02 10:24:43;;;;;;;4.97;1.27;;;;;;;7.42;55.49;103046.00;6050422;29;20298;-73
2021/03/02 10:27:55;;;;;;;4.20;1.53;;;;;;;7.46;54.89;103042.03;6051495;29;20203;-73
2021/03/02 10:31:01;;;;;;;7.47;2.60;;;;;;;7.56;55.33;103048.31;6051439;29;20195;-73
2021/03/02 10:34:07;;;;;;;10.93;4.33;;;;;;;7.56;55.29;103053.72;6051171;29;20191;-73
2021/03/02 10:37:12;;;;;;;23.37;5.70;;;;;;;7.54;53.92;103044.00;6051548;29;20271;-74
2021/03/02 10:40:16;;;;;;;3.57;1.90;;;;;;;7.52;53.61;103054.19;6050518;29;20191;-72
2021/03/02 10:43:23;;;;;;;6.00;2.00;;;;;;;7.55;53.77;103040.28;6051249;29;20222;-72
2021/03/02 10:46:29;;;;;;;5.40;2.80;;;;;;;7.58;52.98;103045.44;6050683;29;20191;-73
2021/03/02 10:49:33;;;;;;;6.13;2.83;;;;;;;7.65;52.92;103034.84;6050529;29;20222;-74
2021/03/02 10:52:36;;;;;;;16.63;6.37;;;;;;;7.69;51.87;103036.28;6049644;29;20263;-73
2021/03/02 10:55:39;;;;;;;13.90;1.77;;;;;;;7.71;50.42;103029.69;6049988;29;20242;-72
2021/03/02 10:58:43;;;;;;;9.97;1.73;;;;;;;7.66;49.20;103036.56;6050465;29;20198;-73
2021/03/02 11:01:48;;;;;;;17.50;1.70;;;;;;;7.79;47.65;103037.09;6050251;29;20194;-73
2021/03/02 11:04:51;;;;;;;3.70;1.30;;;;;;;7.74;46.78;103042.13;6049689;29;20546;-73
2021/03/02 11:07:55;;;;;;;4.13;2.08;;;;;;;7.79;46.00;103047.97;6050468;29;20297;-72
2021/03/02 11:10:58;;;;;;;7.27;1.20;;;;;;;7.79;45.41;103042.53;6049300;29;20530;-75
2021/03/02 11:14:01;;;;;;;19.87;3.17;;;;;;;7.83;45.92;103050.25;6049273;29;20201;-74
2021/03/02 11:17:05;;;;;;;5.00;1.60;;;;;;;7.87;44.33;103042.69;6049251;29;20231;-74
2021/03/02 11:20:09;;;;;;;1.20;1.20;;;;;;;7.93;43.51;103042.09;6049168;29;20405;-74
2021/03/02 11:23:21;;;;;;;7.90;1.40;;;;;;;7.93;43.92;103050.25;6050708;29;20246;-73
2021/03/02 11:26:25;;;;;;;5.73;1.40;;;;;;;7.89;43.29;103035.22;6050172;29;20195;-73
2021/03/02 11:29:28;;;;;;;8.60;1.70;;;;;;;7.88;43.70;103030.81;6048751;29;20388;-75
2021/03/02 11:32:32;;;;;;;14.43;1.67;;;;;;;7.93;44.64;103033.94;6049199;29;20198;-74
2021/03/02 11:35:36;;;;;;;1.80;1.30;;;;;;;7.95;44.16;103027.38;6049290;29;20226;-74
2021/03/02 11:38:40;;;;;;;7.83;1.53;;;;;;;7.98;45.12;103031.66;6049997;29;20199;-74
2021/03/02 11:41:42;;;;;;;7.15;1.90;;;;;;;7.96;45.11;103033.66;6048717;29;20271;-75
2021/03/02 11:44:46;;;;;;;9.43;2.43;;;;;;;8.08;44.68;103051.50;6048561;29;20295;-75
2021/03/02 11:47:50;;;;;;;5.15;1.75;;;;;;;8.05;44.05;103043.63;6048727;29;20417;-75
2021/03/02 11:50:55;;;;;;;7.38;1.20;;;;;;;8.11;43.84;103037.63;6048087;29;20361;-75
2021/03/02 11:53:58;;;;;;;10.98;1.55;;;;;;;8.03;43.56;103051.09;6048979;29;20437;-74
2021/03/02 11:57:01;;;;;;;9.57;1.30;;;;;;;8.00;43.82;103035.06;6049274;29;20234;-74
2021/03/02 12:00:07;;;;;;;8.18;1.42;;;;;;;8.08;43.90;103046.06;6049136;29;20231;-73
2021/03/02 12:03:23;;;;;;;15.05;1.60;;;;;;;8.04;43.67;103036.47;6049223;29;20290;-73
2021/03/02 12:06:26;;;;;;;12.53;1.20;;;;;;;8.11;43.66;103037.63;6047695;29;20207;-73
2021/03/02 12:09:30;;;;;;;3.50;1.40;;;;;;;8.09;43.64;103045.03;6049468;29;20191;-73
2021/03/02 12:12:33;;;;;;;6.18;1.13;;;;;;;8.09;44.23;103034.16;6048043;29;20508;-73
2021/03/02 12:15:37;;;;;;;7.25;1.50;;;;;;;8.19;43.82;103029.59;6048900;29;20190;-73
2021/03/02 12:18:41;;;;;;;5.03;1.30;;;;;;;8.27;42.97;103048.75;6049124;29;20198;-73
2021/03/02 12:21:54;;;;;;;9.32;1.77;;;;;;;8.14;44.64;103038.16;6049061;29;20225;-73
2021/03/02 12:24:57;;;;;;;6.93;1.40;;;;;;;8.21;43.85;103038.44;6047705;29;20245;-73
2021/03/02 12:28:00;;;;;;;9.55;1.40;;;;;;;8.20;43.30;103047.59;6032053;29;20206;-73
2021/03/02 12:31:04;;;;;;;4.28;1.45;;;;;;;8.28;43.32;103050.47;6047502;29;20389;-74
2021/03/02 12:34:09;;;;;;;8.75;1.50;;;;;;;8.31;43.82;103050.19;6047562;29;20195;-74
2021/03/02 12:37:13;;;;;;;4.15;1.42;;;;;;;8.34;43.21;103049.88;6048775;29;20254;-74
2021/03/02 12:40:17;;;;;;;8.48;1.10;;;;;;;8.26;42.03;103047.00;6048680;29;20223;-73
2021/03/02 12:43:21;;;;;;;6.13;1.10;;;;;;;8.27;42.54;103043.31;6048342;29;20222;-73
2021/03/02 12:46:25;;;;;;;7.38;1.50;;;;;;;8.28;41.63;103045.03;6046351;29;20207;-73
2021/03/02 12:49:29;;;;;;;4.03;1.45;;;;;;;8.27;41.18;103059.63;6047293;29;20474;-73
2021/03/02 12:52:32;;;;;;;7.50;1.10;;;;;;;8.26;40.68;103057.91;6047028;29;20369;-73
2021/03/02 12:55:36;;;;;;;7.43;1.25;;;;;;;8.20;42.09;103053.91;6048320;29;20309;-73
2021/03/02 12:58:40;;;;;;;5.18;1.27;;;;;;;8.31;42.82;103044.75;6024071;29;20206;-73
2021/03/02 13:01:44;;;;;;;2.65;1.38;;;;;;;8.35;42.26;103051.56;6047140;29;20497;-74
2021/03/02 13:04:50;;;;;;;6.53;1.05;;;;;;;8.37;42.81;103041.41;6048264;29;20223;-75
2021/03/02 13:07:55;;;;;;;6.55;1.48;;;;;;;8.31;43.16;103049.31;6048083;29;20231;-75
2021/03/02 13:10:59;;;;;;;7.00;1.58;;;;;;;8.34;42.01;103055.31;6047596;29;20227;-74
2021/03/02 13:14:03;;;;;;;8.77;1.48;;;;;;;8.41;41.97;103055.56;6047324;29;20194;-74
2021/03/02 13:17:07;;;;;;;10.52;1.40;;;;;;;8.40;41.95;103062.88;6047916;29;20223;-73
2021/03/02 13:20:14;;;;;;;1.98;1.30;;;;;;;8.41;42.02;103051.00;6047886;29;20191;-74
2021/03/02 13:23:20;;;;;;;17.30;2.35;;;;;;;8.42;42.66;103058.16;6048181;29;20240;-74
2021/03/02 13:26:26;;;;;;;10.02;2.42;;;;;;;8.50;42.48;103065.56;6047683;29;20191;-74
2021/03/02 13:29:31;;;;;;;11.27;1.85;;;;;;;8.45;41.70;103063.28;6046752;29;20222;-75
2021/03/02 13:32:39;;;;;;;9.52;1.77;;;;;;;8.45;42.69;103052.41;6046383;29;20213;-74
2021/03/02 13:35:46;;;;;;;6.32;1.38;;;;;;;8.52;42.20;103052.66;6047929;29;20198;-74
2021/03/02 13:38:52;;;;;;;2.92;1.50;;;;;;;8.49;41.77;103053.81;6048016;29;20270;-74
2021/03/02 13:42:01;;;;;;;8.40;1.33;;;;;;;8.54;41.57;103047.94;6046754;29;20448;-74
2021/03/02 13:45:07;;;;;;;4.68;2.05;;;;;;;8.43;41.00;103046.25;6030599;29;20299;-74
2021/03/02 13:48:17;;;;;;;8.35;2.25;;;;;;;8.39;41.90;103046.72;6032597;29;20200;-73
2021/03/02 13:51:22;;;;;;;13.40;3.10;;;;;;;8.41;41.50;103040.13;6047671;29;20240;-75
2021/03/02 13:54:28;;;;;;;12.85;2.10;;;;;;;8.46;42.65;103037.81;6046851;29;20528;-74
2021/03/02 13:57:32;;;;;;;9.82;3.20;;;;;;;8.53;41.55;103038.91;6047411;29;20213;-74
2021/03/02 14:00:35;;;;;;;11.98;1.60;;;;;;;8.46;41.88;103036.94;6045317;29;20251;-74
2021/03/02 14:03:51;;;;;;;2.40;1.40;;;;;;;8.46;41.29;103040.53;6047675;29;20254;-73
2021/03/02 14:06:55;;;;;;;4.97;1.90;;;;;;;8.47;42.31;103042.25;6047647;29;20223;-74
2021/03/02 14:09:59;;;;;;;7.40;2.70;;;;;;;8.43;41.18;103038.09;6046369;29;20442;-76
2021/03/02 14:13:02;;;;;;;9.00;1.88;;;;;;;8.36;41.38;103033.41;6046352;29;20543;-74
2021/03/02 14:16:09;;;;;;;3.55;1.52;;;;;;;8.54;41.15;103051.50;6046334;29;20500;-75
2021/03/02 14:19:13;;;;;;;4.88;1.67;;;;;;;8.49;41.42;103056.56;6047270;29;20233;-75
2021/03/02 14:22:20;;;;;;;5.30;1.98;;;;;;;8.40;41.22;103060.16;6048561;29;20262;-75
2021/03/02 14:25:24;;;;;;;13.80;1.83;;;;;;;8.45;40.49;103055.13;6050295;29;20533;-74
2021/03/02 14:28:28;;;;;;;3.20;1.60;;;;;;;8.44;40.35;103050.69;6051161;29;20202;-75
2021/03/02 14:31:32;;;;;;;6.65;1.92;;;;;;;8.47;40.47;103050.41;6051449;29;20209;-75
2021/03/02 14:34:35;;;;;;;4.70;1.90;;;;;;;8.46;40.38;103053.25;6051386;29;20195;-74